Time;durP1;ratioP1;P1;durP2;ratioP2;P2;SDS_P1;SDS_P2;PMS_P1;PMS_P2;Temp;Humidity;BMP_temperature;BMP_pressure;BME280_temperature;BME280_humidity;BME280_pressure;Samples;Min_cycle;Max_cycle;Signal;HPM_P1;HPM_P2
2022/05/10 00:02:06;;;;;;;10.48;5.65;;;15.00;93.10;;;;;;5079544;27;20607;-79
2022/05/10 00:04:32;;;;;;;11.45;4.72;;;15.00;93.30;;;;;;5095920;27;20368;-79
2022/05/10 00:06:58;;;;;;;13.65;5.22;;;14.90;93.60;;;;;;5128950;27;20031;-79
2022/05/10 00:09:27;;;;;;;14.13;4.60;;;14.90;93.70;;;;;;5094934;27;20031;-79
2022/05/10 00:11:54;;;;;;;11.20;5.00;;;14.90;93.80;;;;;;5079416;27;20039;-79
2022/05/10 00:14:20;;;;;;;11.07;4.82;;;14.80;93.90;;;;;;5094543;27;20111;-79
2022/05/10 00:16:51;;;;;;;12.85;5.07;;;14.80;94.10;;;;;;5108364;27;20080;-79
2022/05/10 00:19:18;;;;;;;11.73;4.93;;;14.70;94.20;;;;;;5112423;27;20668;-79
2022/05/10 00:21:44;;;;;;;10.07;4.90;;;14.60;94.50;;;;;;5076972;27;20039;-79
2022/05/10 00:24:11;;;;;;;10.32;5.60;;;14.60;94.50;;;;;;5113070;27;20043;-79
2022/05/10 00:26:37;;;;;;;12.90;5.38;;;14.50;94.70;;;;;;5077289;27;20039;-79
2022/05/10 00:29:03;;;;;;;9.57;5.60;;;14.50;94.80;;;;;;5068868;27;20031;-79
2022/05/10 00:31:29;;;;;;;13.48;5.63;;;14.50;95.00;;;;;;5113628;27;20362;-79
2022/05/10 00:33:56;;;;;;;13.52;5.88;;;14.50;95.10;;;;;;5112003;27;20047;-79
2022/05/10 00:36:23;;;;;;;9.35;5.07;;;14.40;95.20;;;;;;5094056;27;20558;-79
2022/05/10 00:38:50;;;;;;;13.40;5.63;;;14.40;95.40;;;;;;5094469;27;20047;-79
2022/05/10 00:41:54;;;;;;;12.50;5.55;;;14.40;95.60;;;;;;5094818;27;20038;-79
2022/05/10 00:44:47;;;;;;;10.55;5.50;;;14.40;95.60;;;;;;5111578;27;20039;-79
2022/05/10 00:47:32;;;;;;;8.70;6.05;;;14.30;95.40;;;;;;5062288;27;20145;-79
2022/05/10 00:50:22;;;;;;;11.60;6.57;;;14.30;95.80;;;;;;5094228;27;20043;-79
2022/05/10 00:53:03;;;;;;;13.63;6.10;;;14.30;95.90;;;;;;5103427;27;20035;-79
2022/05/10 00:55:31;;;;;;;13.02;6.28;;;14.20;96.20;;;;;;5094875;27;20046;-79
2022/05/10 00:58:20;;;;;;;12.38;6.10;;;14.10;96.60;;;;;;5093799;27;20035;-79
2022/05/10 01:00:46;;;;;;;17.42;6.10;;;14.10;96.80;;;;;;5084952;27;20138;-79
2022/05/10 01:03:31;;;;;;;9.70;6.00;;;14.00;97.10;;;;;;5066361;27;20086;-79
2022/05/10 01:06:03;;;;;;;13.63;6.50;;;14.00;97.10;;;;;;5094143;27;20042;-79
2022/05/10 01:08:38;;;;;;;14.48;6.22;;;13.90;97.40;;;;;;5109509;27;20066;-79
2022/05/10 01:11:10;;;;;;;15.10;6.50;;;13.90;97.80;;;;;;5094195;27;20075;-79
2022/05/10 01:13:40;;;;;;;10.73;6.72;;;14.00;98.00;;;;;;5095460;27;20542;-79
2022/05/10 01:16:27;;;;;;;13.45;6.20;;;13.90;98.20;;;;;;5094460;27;20049;-79
2022/05/10 01:18:53;;;;;;;;;;;13.80;98.20;;;;;;5092652;27;20043;-79
2022/05/10 01:21:44;;;;;;;14.77;6.68;;;13.80;98.00;;;;;;5077711;27;19923;-79
2022/05/10 01:24:25;;;;;;;15.40;6.82;;;13.80;98.40;;;;;;5110738;27;20103;-80
2022/05/10 01:26:59;;;;;;;11.65;6.93;;;13.80;98.50;;;;;;5093862;27;20146;-79
2022/05/10 01:29:42;;;;;;;15.00;7.15;;;13.70;98.90;;;;;;5091688;27;20058;-79
2022/05/10 01:35:00;;;;;;;16.52;7.22;;;13.70;99.60;;;;;;5110552;27;20046;-79
2022/05/10 01:37:32;;;;;;;11.98;6.57;;;13.70;99.90;;;;;;5077395;27;20066;-79
2022/05/10 01:40:03;;;;;;;11.38;6.85;;;13.50;99.90;;;;;;5093764;27;20043;-79
2022/05/10 01:42:36;;;;;;;16.00;6.95;;;13.50;99.90;;;;;;5093247;27;20042;-79
2022/05/10 01:45:24;;;;;;;14.90;6.20;;;13.40;99.90;;;;;;5094753;27;20039;-79
2022/05/10 01:47:56;;;;;;;11.80;6.70;;;13.30;99.90;;;;;;5110068;27;20031;-79
2022/05/10 01:50:44;;;;;;;13.35;7.13;;;13.30;99.90;;;;;;5111345;27;20151;-79
2022/05/10 01:53:10;;;;;;;14.68;7.22;;;13.30;99.90;;;;;;5111393;27;20134;-79
2022/05/10 01:55:37;;;;;;;17.45;7.72;;;13.30;99.90;;;;;;5092862;28;20105;-79
2022/05/10 01:58:11;;;;;;;12.90;7.20;;;13.20;99.90;;;;;;5109857;27;20094;-79
2022/05/10 02:00:38;;;;;;;13.02;7.03;;;13.20;99.90;;;;;;5110686;27;20038;-80
2022/05/10 02:03:27;;;;;;;15.52;7.57;;;13.20;99.90;;;;;;5065787;27;20039;-79
2022/05/10 02:06:05;;;;;;;14.85;7.35;;;13.10;99.90;;;;;;5093211;27;21306;-79
2022/05/10 02:08:47;;;;;;;16.77;7.68;;;13.10;99.90;;;;;;5091323;27;20058;-79
2022/05/10 02:11:15;;;;;;;14.52;7.28;;;13.00;99.90;;;;;;5092311;27;20046;-79
2022/05/10 02:13:52;;;;;;;12.43;6.97;;;13.00;99.90;;;;;;5092601;27;20121;-80
2022/05/10 02:16:32;;;;;;;14.30;7.78;;;13.00;99.90;;;;;;5109373;27;20063;-79
2022/05/10 02:19:00;;;;;;;11.48;7.15;;;13.00;99.90;;;;;;5108587;27;20141;-79
2022/05/10 02:21:38;;;;;;;11.27;7.10;;;13.00;99.90;;;;;;5107869;27;20069;-79
2022/05/10 02:24:26;;;;;;;15.93;7.38;;;13.10;99.90;;;;;;5091902;27;20046;-79
2022/05/10 02:26:57;;;;;;;14.77;7.03;;;13.10;99.90;;;;;;5091925;27;20039;-79
2022/05/10 02:29:31;;;;;;;13.20;7.28;;;13.10;99.90;;;;;;5109164;28;20039;-80
2022/05/10 02:34:53;;;;;;;13.85;6.82;;;13.20;99.90;;;;;;5110278;27;20409;-83
2022/05/10 02:37:19;;;;;;;9.88;7.43;;;13.20;99.90;;;;;;5083493;28;20374;-84
2022/05/10 02:39:45;;;;;;;12.27;7.57;;;13.20;99.90;;;;;;5092632;28;20031;-84
2022/05/10 02:42:14;;;;;;;21.10;8.32;;;13.20;99.90;;;;;;5068445;28;20059;-84
2022/05/10 02:44:41;;;;;;;14.27;7.72;;;13.30;99.90;;;;;;5093708;28;20134;-84
2022/05/10 02:47:09;;;;;;;11.70;7.15;;;12.50;99.90;;;;;;5090395;27;20063;-83
2022/05/10 02:49:37;;;;;;;12.52;8.10;;;12.90;99.90;;;;;;5099745;28;20043;-84
2022/05/10 02:52:03;;;;;;;12.88;7.70;;;13.30;99.90;;;;;;5092301;28;20053;-84
2022/05/10 02:54:29;;;;;;;17.27;8.82;;;13.30;99.90;;;;;;5109945;28;20047;-84
2022/05/10 02:56:57;;;;;;;14.52;8.10;;;13.30;99.90;;;;;;5092587;28;20043;-83
2022/05/10 02:59:26;;;;;;;14.55;7.97;;;13.30;99.90;;;;;;5074250;28;20143;-84
2022/05/10 03:02:18;;;;;;;15.48;8.23;;;13.30;99.90;;;;;;5091508;28;20043;-84
2022/05/10 03:04:51;;;;;;;18.05;9.20;;;13.30;99.90;;;;;;5124149;28;20043;-84
2022/05/10 03:07:17;;;;;;;17.10;8.40;;;13.40;99.90;;;;;;5110118;27;20096;-84
2022/05/10 03:09:43;;;;;;;17.05;8.52;;;13.40;99.90;;;;;;5074335;27;20116;-84
2022/05/10 03:12:09;;;;;;;13.18;8.32;;;13.40;99.90;;;;;;5077455;27;20047;-84
2022/05/10 03:14:35;;;;;;;15.13;8.52;;;13.30;99.90;;;;;;5090434;27;20049;-84
2022/05/10 03:17:03;;;;;;;13.70;8.10;;;13.40;99.90;;;;;;5076248;27;20027;-84
2022/05/10 03:19:29;;;;;;;14.10;9.10;;;13.40;99.90;;;;;;5077398;27;20099;-84
2022/05/10 03:21:55;;;;;;;16.80;8.88;;;13.40;99.90;;;;;;5096828;27;20126;-84
2022/05/10 03:24:21;;;;;;;12.40;8.40;;;13.50;99.90;;;;;;5095890;27;20543;-84
2022/05/10 03:26:49;;;;;;;14.95;9.18;;;13.50;99.90;;;;;;5094333;27;20148;-84
2022/05/10 03:29:15;;;;;;;15.00;9.75;;;13.50;99.90;;;;;;5095662;27;20031;-84
2022/05/10 03:31:41;;;;;;;17.48;9.85;;;13.50;99.90;;;;;;5075255;27;20049;-84
2022/05/10 03:36:51;;;;;;;15.00;8.55;;;13.60;99.90;;;;;;5097495;27;20505;-84
2022/05/10 03:39:17;;;;;;;14.48;9.10;;;13.60;99.90;;;;;;5096781;27;20118;-84
2022/05/10 03:41:43;;;;;;;14.35;9.00;;;13.60;99.90;;;;;;5097928;27;20038;-84
2022/05/10 03:44:10;;;;;;;18.38;9.32;;;13.60;99.90;;;;;;5080064;27;20398;-84
2022/05/10 03:46:36;;;;;;;12.93;8.80;;;13.60;99.90;;;;;;5078035;27;20480;-84
2022/05/10 03:49:02;;;;;;;15.23;9.35;;;13.60;99.90;;;;;;5064055;27;20173;-84
2022/05/10 03:51:28;;;;;;;19.35;9.15;;;13.60;99.90;;;;;;5094910;27;20031;-84
2022/05/10 03:53:54;;;;;;;14.32;9.10;;;13.70;99.90;;;;;;5094742;27;20039;-84
2022/05/10 03:56:20;;;;;;;14.77;8.50;;;13.70;99.90;;;;;;5113806;27;20043;-84
2022/05/10 03:58:45;;;;;;;16.00;8.65;;;13.70;99.90;;;;;;5075035;27;20553;-84
2022/05/10 04:01:11;;;;;;;14.82;8.30;;;13.70;99.90;;;;;;5114532;27;20042;-84
2022/05/10 04:03:37;;;;;;;14.55;8.93;;;13.80;99.90;;;;;;5097350;27;20039;-84
2022/05/10 04:06:03;;;;;;;15.88;9.10;;;13.80;99.90;;;;;;5077117;27;20102;-84
2022/05/10 04:08:30;;;;;;;13.90;9.05;;;13.80;99.90;;;;;;5077307;27;20111;-84
2022/05/10 04:11:07;;;;;;;13.68;8.82;;;13.80;99.90;;;;;;5110430;27;20035;-84
2022/05/10 04:13:33;;;;;;;15.75;9.52;;;13.90;99.90;;;;;;5096300;27;21384;-85
2022/05/10 04:15:59;;;;;;;14.50;9.20;;;13.90;99.90;;;;;;5096324;27;20039;-84
2022/05/10 04:18:26;;;;;;;16.98;9.00;;;13.90;99.90;;;;;;5094932;28;20114;-83
2022/05/10 04:20:53;;;;;;;13.68;9.23;;;14.00;99.90;;;;;;5126257;27;20126;-84
2022/05/10 04:23:19;;;;;;;13.48;9.45;;;14.00;99.90;;;;;;5092055;27;20043;-84
2022/05/10 04:25:44;;;;;;;13.60;9.48;;;14.00;99.90;;;;;;5072177;28;20039;-84
2022/05/10 04:28:10;;;;;;;12.52;9.00;;;14.10;99.90;;;;;;5072335;28;20540;-84
2022/05/10 04:30:37;;;;;;;13.15;9.30;;;14.10;99.90;;;;;;5072112;28;20043;-84
2022/05/10 04:33:03;;;;;;;15.18;8.82;;;14.10;99.90;;;;;;5092774;28;20118;-84
2022/05/10 04:35:29;;;;;;;17.67;9.68;;;14.20;99.90;;;;;;5069317;28;20058;-84
2022/05/10 04:37:55;;;;;;;14.57;9.70;;;14.20;99.90;;;;;;5091497;28;20047;-84
2022/05/10 04:43:05;;;;;;;18.40;10.43;;;14.20;99.90;;;;;;5106263;28;20040;-84
2022/05/10 04:45:34;;;;;;;12.60;9.20;;;14.20;99.90;;;;;;5109359;28;20142;-84
2022/05/10 04:48:00;;;;;;;14.55;8.43;;;14.30;99.90;;;;;;5072614;28;20392;-84
2022/05/10 04:50:26;;;;;;;15.85;9.20;;;14.30;99.90;;;;;;5109111;28;20076;-84
2022/05/10 04:52:52;;;;;;;16.48;9.45;;;14.30;99.90;;;;;;5089887;28;20410;-84
2022/05/10 04:55:20;;;;;;;13.77;8.77;;;14.40;99.90;;;;;;5089917;28;20032;-84
2022/05/10 04:57:47;;;;;;;16.42;9.38;;;14.40;99.90;;;;;;5089160;28;20114;-84
2022/05/10 05:00:15;;;;;;;15.32;9.48;;;14.40;99.90;;;;;;5091154;28;20038;-84
2022/05/10 05:02:42;;;;;;;17.60;9.68;;;14.50;99.90;;;;;;5091271;28;20035;-84
2022/05/10 05:05:10;;;;;;;16.80;9.85;;;14.60;99.90;;;;;;5106933;28;20122;-84
2022/05/10 05:07:36;;;;;;;15.93;9.60;;;14.60;99.90;;;;;;5089072;28;20035;-84
2022/05/10 05:10:03;;;;;;;16.42;9.13;;;14.70;99.90;;;;;;5078972;28;20042;-84
2022/05/10 05:12:32;;;;;;;12.93;9.25;;;14.70;99.90;;;;;;5106303;28;20189;-84
2022/05/10 05:14:59;;;;;;;18.48;9.85;;;14.70;99.90;;;;;;5091278;28;20048;-84
2022/05/10 05:17:25;;;;;;;13.55;9.82;;;14.80;99.90;;;;;;5090725;28;20039;-84
2022/05/10 05:19:51;;;;;;;13.93;9.93;;;14.80;99.90;;;;;;5089476;28;20040;-84
2022/05/10 05:22:16;;;;;;;15.70;10.18;;;14.90;99.90;;;;;;5057789;28;20100;-84
2022/05/10 05:24:42;;;;;;;14.45;9.48;;;14.90;99.90;;;;;;5072834;28;20038;-85
2022/05/10 05:27:08;;;;;;;15.98;10.18;;;15.00;99.90;;;;;;5089951;28;20101;-84
2022/05/10 05:29:34;;;;;;;14.82;10.18;;;15.00;99.90;;;;;;5089699;28;20046;-84
2022/05/10 05:32:05;;;;;;;16.55;10.23;;;15.10;99.90;;;;;;5107132;28;20123;-84
2022/05/10 05:34:30;;;;;;;17.77;9.48;;;15.10;99.90;;;;;;5089847;28;21330;-84
2022/05/10 05:39:41;;;;;;;15.75;9.18;;;15.20;99.90;;;;;;5093872;27;20134;-84
2022/05/10 05:42:07;;;;;;;15.88;9.98;;;15.30;99.90;;;;;;5091327;28;20119;-84
2022/05/10 05:44:32;;;;;;;14.38;9.20;;;15.30;99.90;;;;;;5058698;28;20055;-84
2022/05/10 05:46:58;;;;;;;19.65;10.23;;;15.40;99.90;;;;;;5089560;28;20063;-84
2022/05/10 05:49:26;;;;;;;13.25;9.55;;;15.40;99.90;;;;;;5057356;28;20035;-84
2022/05/10 05:51:56;;;;;;;14.32;9.75;;;15.50;99.90;;;;;;5090357;28;20040;-84
2022/05/10 05:54:22;;;;;;;15.27;9.80;;;15.50;99.90;;;;;;5088281;28;20506;-84
2022/05/10 05:56:48;;;;;;;17.88;10.18;;;15.60;99.90;;;;;;5057360;28;20035;-84
2022/05/10 05:59:13;;;;;;;13.57;10.18;;;15.70;99.90;;;;;;5089282;28;20063;-84
2022/05/10 06:01:39;;;;;;;15.65;10.40;;;15.70;99.90;;;;;;5058470;28;20036;-84
2022/05/10 06:04:05;;;;;;;17.77;10.25;;;15.80;99.90;;;;;;5090290;28;20046;-85
2022/05/10 06:06:31;;;;;;;17.08;10.20;;;15.90;99.90;;;;;;5058252;28;20375;-84
2022/05/10 06:08:56;;;;;;;21.80;10.23;;;16.00;99.90;;;;;;5056982;28;20040;-84
2022/05/10 06:11:22;;;;;;;16.55;10.82;;;16.10;99.90;;;;;;5057448;28;20048;-85
2022/05/10 06:13:48;;;;;;;17.80;9.52;;;16.20;99.90;;;;;;5091015;28;20045;-84
2022/05/10 06:16:14;;;;;;;18.25;10.77;;;16.30;99.90;;;;;;5067989;28;20035;-85
2022/05/10 06:18:41;;;;;;;17.98;11.32;;;16.30;99.90;;;;;;5106611;28;20088;-85
2022/05/10 06:21:07;;;;;;;19.90;11.30;;;16.40;99.90;;;;;;5088469;28;20372;-84
2022/05/10 06:23:32;;;;;;;17.33;11.85;;;16.50;99.90;;;;;;5089189;28;20119;-84
2022/05/10 06:25:58;;;;;;;15.75;10.38;;;16.60;99.90;;;;;;5057608;28;20035;-79
2022/05/10 06:28:23;;;;;;;19.75;10.50;;;16.60;99.90;;;;;;5053750;28;20039;-80
2022/05/10 06:30:49;;;;;;;15.30;10.43;;;16.70;99.90;;;;;;5074476;28;20081;-79
2022/05/10 06:33:16;;;;;;;16.75;10.50;;;16.70;99.90;;;;;;5065159;28;20050;-78
2022/05/10 06:35:44;;;;;;;18.63;10.48;;;16.70;99.90;;;;;;5057434;28;20123;-80
2022/05/10 06:38:30;;;;;;;13.60;9.88;;;16.80;99.90;;;;;;5065862;28;20035;-80
2022/05/10 06:41:01;;;;;;;19.58;9.55;;;16.90;99.90;;;;;;5091018;28;20083;-79
2022/05/10 06:43:28;;;;;;;21.67;9.48;;;17.10;99.90;;;;;;5090476;28;20039;-80
2022/05/10 06:46:01;;;;;;;13.77;9.07;;;17.20;99.90;;;;;;5089430;28;20097;-80
2022/05/10 06:48:28;;;;;;;16.95;9.30;;;17.40;99.90;;;;;;5103956;28;20071;-79
2022/05/10 06:50:54;;;;;;;14.63;9.60;;;17.60;99.90;;;;;;5068753;28;20053;-80
2022/05/10 06:53:19;;;;;;;15.00;8.98;;;17.80;99.90;;;;;;5107498;28;20522;-80
2022/05/10 06:55:45;;;;;;;16.15;8.63;;;18.10;99.90;;;;;;5089991;28;20108;-79
2022/05/10 06:58:11;;;;;;;15.52;8.02;;;18.30;99.90;;;;;;5054901;28;20105;-79
2022/05/10 07:00:39;;;;;;;17.48;8.52;;;18.50;99.90;;;;;;5087031;28;20052;-79
2022/05/10 07:03:07;;;;;;;13.25;7.97;;;18.70;99.90;;;;;;5107035;28;20031;-79
2022/05/10 07:05:34;;;;;;;14.27;7.45;;;18.80;99.90;;;;;;5089755;28;20072;-80
2022/05/10 07:08:00;;;;;;;14.98;7.22;;;19.00;99.00;;;;;;5089490;28;20071;-80
2022/05/10 07:10:26;;;;;;;17.50;7.10;;;19.20;98.80;;;;;;5072644;28;20126;-80
2022/05/10 07:12:52;;;;;;;13.15;7.10;;;19.30;98.00;;;;;;5088776;28;20044;-80
2022/05/10 07:15:19;;;;;;;12.10;6.85;;;19.40;97.80;;;;;;5066579;28;20046;-80
2022/05/10 07:17:45;;;;;;;12.88;6.90;;;19.60;97.40;;;;;;5106331;28;20531;-79
2022/05/10 07:20:13;;;;;;;12.60;7.72;;;19.70;96.80;;;;;;5067895;28;20032;-80
2022/05/10 07:22:39;;;;;;;13.60;7.55;;;19.80;96.60;;;;;;5092959;28;20108;-78
2022/05/10 07:25:05;;;;;;;11.07;6.57;;;19.80;96.50;;;;;;5093771;28;20031;-79
2022/05/10 07:27:31;;;;;;;12.48;8.15;;;20.00;95.20;;;;;;5068805;28;20031;-79
2022/05/10 07:29:57;;;;;;;14.38;7.85;;;20.00;95.00;;;;;;5108240;28;20229;-79
2022/05/10 07:32:24;;;;;;;10.50;7.47;;;20.10;95.10;;;;;;5094603;28;20070;-79
2022/05/10 07:34:50;;;;;;;13.55;8.00;;;20.20;95.00;;;;;;5111098;28;20107;-80
2022/05/10 07:37:15;;;;;;;13.65;7.50;;;20.30;94.60;;;;;;5110126;28;20035;-76
2022/05/10 07:39:41;;;;;;;12.68;8.18;;;20.40;94.70;;;;;;5093630;28;20039;-77
2022/05/10 07:42:07;;;;;;;14.85;8.68;;;20.60;94.30;;;;;;5093884;28;20120;-79
2022/05/10 07:44:34;;;;;;;11.70;8.43;;;20.70;93.90;;;;;;5092680;28;20040;-80
2022/05/10 07:46:59;;;;;;;15.77;7.75;;;20.90;93.50;;;;;;5090427;28;20056;-77
2022/05/10 07:49:25;;;;;;;12.25;7.90;;;20.90;93.60;;;;;;5089103;28;20123;-80
2022/05/10 07:51:51;;;;;;;10.50;7.93;;;21.00;93.50;;;;;;5109264;28;20031;-78
2022/05/10 07:54:17;;;;;;;11.90;7.75;;;21.00;93.40;;;;;;5098613;27;20043;-78
2022/05/10 07:56:43;;;;;;;10.38;7.25;;;21.00;93.30;;;;;;5100373;27;20356;-80
2022/05/10 07:59:09;;;;;;;13.15;8.35;;;21.00;93.50;;;;;;5114930;27;20053;-80
2022/05/10 08:01:35;;;;;;;13.60;7.97;;;20.90;93.60;;;;;;5120868;27;20035;-79
2022/05/10 08:04:02;;;;;;;14.23;7.68;;;20.90;93.90;;;;;;5102354;27;20026;-80
2022/05/10 08:06:28;;;;;;;11.23;7.88;;;20.80;93.80;;;;;;5118541;27;20035;-80
2022/05/10 08:08:54;;;;;;;11.88;7.50;;;20.70;93.90;;;;;;5114706;27;20054;-80
2022/05/10 08:11:20;;;;;;;17.65;8.45;;;20.70;94.00;;;;;;5080265;27;20043;-80
2022/05/10 08:13:46;;;;;;;11.98;7.72;;;20.60;94.10;;;;;;5117701;27;20391;-80
2022/05/10 08:16:13;;;;;;;12.73;7.82;;;20.50;94.00;;;;;;5114145;27;20041;-79
2022/05/10 08:18:41;;;;;;;12.23;7.55;;;20.50;93.50;;;;;;5098755;27;20067;-80
2022/05/10 08:21:07;;;;;;;12.98;7.38;;;20.40;93.90;;;;;;5112927;27;20126;-79
2022/05/10 08:23:35;;;;;;;11.35;7.68;;;20.40;93.80;;;;;;5095286;27;20035;-79
2022/05/10 08:26:02;;;;;;;13.18;7.72;;;20.30;94.00;;;;;;5111606;27;20092;-81
2022/05/10 08:28:30;;;;;;;13.30;7.78;;;20.30;94.30;;;;;;5112745;27;20063;-81
2022/05/10 08:30:56;;;;;;;14.48;7.97;;;20.30;93.70;;;;;;5093029;27;20078;-79
2022/05/10 08:33:26;;;;;;;12.80;7.82;;;20.30;93.90;;;;;;5108804;27;20075;-79
2022/05/10 08:35:54;;;;;;;11.70;7.82;;;20.30;93.90;;;;;;5111568;27;21460;-77
2022/05/10 08:38:20;;;;;;;10.15;7.32;;;20.40;94.10;;;;;;5112155;27;20095;-77
2022/05/10 08:40:55;;;;;;;13.27;7.72;;;20.40;94.10;;;;;;5111174;27;20629;-77
2022/05/10 08:43:26;;;;;;;14.57;8.38;;;20.40;94.00;;;;;;5093706;27;20043;-76
2022/05/10 08:45:52;;;;;;;17.77;8.23;;;20.50;94.10;;;;;;5108834;27;20055;-77
2022/05/10 08:48:18;;;;;;;13.60;7.20;;;20.50;94.20;;;;;;5070486;27;20054;-78
2022/05/10 08:50:48;;;;;;;12.35;7.28;;;20.50;93.80;;;;;;5075881;27;20047;-81
2022/05/10 08:53:17;;;;;;;13.80;7.63;;;20.50;93.70;;;;;;5110735;27;20043;-78
2022/05/10 08:56:03;;;;;;;13.45;7.78;;;20.60;93.90;;;;;;5092857;27;20118;-80
2022/05/10 08:58:28;;;;;;;;;;;20.60;94.30;;;;;;5096177;27;20049;-80
2022/05/10 09:00:57;;;;;;;11.57;8.57;;;20.60;93.90;;;;;;5113479;27;19924;-80
2022/05/10 09:03:41;;;;;;;15.32;8.50;;;20.70;93.80;;;;;;5113554;27;20102;-81
2022/05/10 09:06:37;;;;;;;12.80;8.80;;;20.70;94.00;;;;;;5095575;27;20043;-81
2022/05/10 09:09:29;;;;;;;16.48;8.93;;;20.70;93.60;;;;;;5111962;27;20047;-80
2022/05/10 09:12:09;;;;;;;16.95;8.40;;;20.80;93.80;;;;;;5096264;27;20027;-80
2022/05/10 09:15:02;;;;;;;16.00;10.45;;;20.90;94.20;;;;;;5097360;27;20031;-80
2022/05/10 09:17:30;;;;;;;13.75;8.80;;;20.90;94.00;;;;;;5094485;27;20043;-81
2022/05/10 09:19:57;;;;;;;15.15;10.27;;;21.00;94.20;;;;;;5111819;27;20035;-81
2022/05/10 09:22:31;;;;;;;16.45;10.13;;;21.10;94.30;;;;;;5092369;27;20063;-81
2022/05/10 09:24:56;;;;;;;16.73;9.30;;;21.30;94.00;;;;;;5098681;27;20491;-81
2022/05/10 09:27:31;;;;;;;13.50;9.80;;;21.50;94.20;;;;;;5096432;27;20066;-81
2022/05/10 09:29:57;;;;;;;15.57;9.38;;;21.60;93.90;;;;;;5094744;27;20042;-81
2022/05/10 09:35:21;;;;;;;16.67;9.30;;;21.90;93.40;;;;;;5131694;27;20043;-81
2022/05/10 09:38:08;;;;;;;13.80;9.32;;;22.00;93.20;;;;;;5111937;27;20043;-81
2022/05/10 09:40:46;;;;;;;15.68;8.65;;;22.10;93.30;;;;;;5113784;27;20040;-81
2022/05/10 09:43:15;;;;;;;13.63;7.93;;;22.20;93.10;;;;;;5110654;27;20037;-81
2022/05/10 09:45:42;;;;;;;13.43;8.27;;;22.30;92.50;;;;;;5111946;27;20148;-80
2022/05/10 09:48:07;;;;;;;17.23;9.05;;;22.30;92.80;;;;;;5094761;27;20190;-81
2022/05/10 09:50:42;;;;;;;13.90;8.80;;;22.30;93.00;;;;;;5111879;27;20043;-81
2022/05/10 09:53:33;;;;;;;12.63;8.00;;;22.40;93.00;;;;;;5113403;27;20452;-81
2022/05/10 09:56:24;;;;;;;12.73;8.80;;;22.50;92.10;;;;;;5109097;27;20110;-81
2022/05/10 09:58:55;;;;;;;9.68;8.38;;;22.50;92.10;;;;;;5093910;27;20577;-81
2022/05/10 10:01:46;;;;;;;11.60;8.80;;;22.50;92.50;;;;;;5111757;27;20038;-81
2022/05/10 10:04:21;;;;;;;13.07;8.80;;;22.50;92.30;;;;;;5110563;27;20447;-82
2022/05/10 10:07:13;;;;;;;11.85;9.10;;;22.50;92.30;;;;;;5092549;27;20046;-81
2022/05/10 10:09:42;;;;;;;11.70;8.27;;;22.60;92.40;;;;;;5092783;27;20042;-81
2022/05/10 10:12:33;;;;;;;15.55;9.02;;;22.60;92.60;;;;;;5092284;27;20039;-84
2022/05/10 10:14:59;;;;;;;9.98;7.43;;;22.60;92.30;;;;;;5096141;27;20035;-81
2022/05/10 10:17:36;;;;;;;10.05;6.90;;;22.60;92.10;;;;;;5076356;27;20031;-83
2022/05/10 10:20:20;;;;;;;12.68;8.18;;;22.60;92.10;;;;;;5111223;27;20043;-81
2022/05/10 10:22:55;;;;;;;11.13;7.82;;;22.70;92.40;;;;;;5111122;27;20134;-79
2022/05/10 10:25:35;;;;;;;12.32;7.07;;;22.90;92.10;;;;;;5078096;28;20046;-78
2022/05/10 10:28:25;;;;;;;13.73;7.70;;;23.00;91.80;;;;;;5110971;27;20084;-79
2022/05/10 10:31:18;;;;;;;13.93;7.10;;;23.10;91.70;;;;;;5109288;27;20054;-78
2022/05/10 10:33:57;;;;;;;11.77;7.18;;;23.10;91.20;;;;;;5111103;27;20062;-78
2022/05/10 10:36:32;;;;;;;16.48;6.82;;;23.10;91.20;;;;;;5111279;27;20485;-79
2022/05/10 10:39:13;;;;;;;;;;;23.10;91.90;;;;;;5093847;27;20027;-79
2022/05/10 10:41:54;;;;;;;11.43;6.78;;;23.10;91.80;;;;;;5094325;28;19963;-79
2022/05/10 10:44:34;;;;;;;23.15;5.55;;;23.10;91.80;;;;;;5110376;28;20681;-78
2022/05/10 10:47:24;;;;;;;11.88;5.40;;;23.20;91.00;;;;;;5091560;28;20099;-79
2022/05/10 10:50:04;;;;;;;11.23;4.97;;;23.30;88.50;;;;;;5091920;28;20057;-80
2022/05/10 10:52:31;;;;;;;12.45;4.95;;;23.40;88.00;;;;;;5109571;28;20043;-78
2022/05/10 10:54:58;;;;;;;15.13;5.30;;;23.40;86.90;;;;;;5094684;28;20081;-79
2022/05/10 10:57:57;;;;;;;13.52;6.25;;;23.50;86.60;;;;;;5091152;28;20452;-79
2022/05/10 11:00:39;;;;;;;11.82;5.78;;;23.50;85.20;;;;;;5108660;28;20479;-79
2022/05/10 11:03:19;;;;;;;7.05;5.22;;;23.40;84.50;;;;;;5092067;28;20047;-79
2022/05/10 11:06:09;;;;;;;10.00;5.55;;;23.40;84.60;;;;;;5111585;27;20449;-79
2022/05/10 11:08:59;;;;;;;10.77;5.57;;;23.40;83.90;;;;;;5094546;28;20445;-79
2022/05/10 11:11:40;;;;;;;12.85;5.90;;;23.40;83.80;;;;;;5093245;28;20035;-80
2022/05/10 11:14:13;;;;;;;12.25;5.65;;;23.40;83.60;;;;;;5111025;28;20043;-79
2022/05/10 11:17:23;;;;;;;11.10;5.75;;;23.50;84.00;;;;;;5110116;28;20046;-79
2022/05/10 11:20:23;;;;;;;11.93;5.40;;;23.50;83.10;;;;;;5111795;28;20047;-80
2022/05/10 11:23:06;;;;;;;8.68;5.18;;;23.50;83.40;;;;;;5093376;28;20130;-80
2022/05/10 11:25:54;;;;;;;11.65;5.95;;;23.60;83.20;;;;;;5095103;28;20471;-79
2022/05/10 11:28:45;;;;;;;7.72;4.93;;;23.60;83.90;;;;;;5113878;27;20063;-80
2022/05/10 11:31:20;;;;;;;7.03;4.75;;;23.70;84.60;;;;;;5114619;27;20168;-80
2022/05/10 11:34:34;;;;;;;13.48;5.22;;;23.80;83.40;;;;;;5116008;27;20031;-80
2022/05/10 11:37:03;;;;;;;9.07;5.13;;;23.90;83.00;;;;;;5087060;27;20047;-80
2022/05/10 11:39:52;;;;;;;11.20;5.63;;;23.90;83.80;;;;;;5114775;27;20084;-80
2022/05/10 11:42:32;;;;;;;12.15;5.07;;;24.00;82.80;;;;;;5132213;27;20043;-80
2022/05/10 11:45:16;;;;;;;11.00;5.45;;;24.00;83.40;;;;;;5099209;27;20538;-80
2022/05/10 11:48:09;;;;;;;15.52;5.00;;;24.10;83.60;;;;;;5114452;27;20118;-80
2022/05/10 11:54:09;;;;;;;9.75;4.70;;;24.20;81.00;;;;;;5114299;27;20107;-81
2022/05/10 11:56:39;;;;;;;14.85;4.70;;;24.20;80.90;;;;;;5113281;27;20039;-80
2022/05/10 11:59:32;;;;;;;10.15;5.22;;;24.20;80.80;;;;;;5132874;27;20069;-80
2022/05/10 12:02:00;;;;;;;17.40;6.60;;;24.20;79.60;;;;;;5113550;27;20046;-81
2022/05/10 12:04:28;;;;;;;16.33;4.47;;;24.10;79.90;;;;;;5075916;27;20034;-81
2022/05/10 12:06:55;;;;;;;15.25;5.00;;;24.20;80.10;;;;;;5114173;27;20070;-81
2022/05/10 12:09:52;;;;;;;11.35;5.22;;;24.20;80.00;;;;;;5097579;27;20043;-82
2022/05/10 12:12:33;;;;;;;10.57;4.60;;;24.20;78.50;;;;;;5112541;27;20474;-81
2022/05/10 12:21:21;;;;;;;11.63;4.10;;;24.10;79.90;;;;;;5111646;27;20047;-81
2022/05/10 12:24:25;;;;;;;18.13;4.28;;;24.30;79.50;;;;;;5098350;27;21037;-81
2022/05/10 12:26:55;;;;;;;27.35;4.00;;;24.30;79.30;;;;;;5100920;27;20039;-82
2022/05/10 12:29:40;;;;;;;10.27;4.00;;;24.40;79.00;;;;;;5095971;27;20035;-82
2022/05/10 12:32:21;;;;;;;17.45;3.78;;;24.40;79.50;;;;;;5112769;27;20045;-81
2022/05/10 12:34:58;;;;;;;14.55;4.00;;;24.50;79.30;;;;;;5095292;27;20039;-82
2022/05/10 12:37:27;;;;;;;6.93;3.88;;;24.60;79.70;;;;;;5079076;27;20138;-81
2022/05/10 12:40:09;;;;;;;11.13;4.00;;;24.70;78.80;;;;;;5095614;27;20042;-81
2022/05/10 12:42:36;;;;;;;15.82;4.03;;;24.70;78.40;;;;;;5103753;27;20475;-80
2022/05/10 12:45:38;;;;;;;17.10;4.15;;;24.70;78.60;;;;;;5091717;27;20110;-80
2022/05/10 12:48:28;;;;;;;11.55;3.90;;;24.70;76.80;;;;;;5106941;27;20466;-80
2022/05/10 12:51:32;;;;;;;10.77;4.57;;;24.60;77.90;;;;;;5116024;27;20046;-80
2022/05/10 12:54:04;;;;;;;9.60;3.70;;;24.50;76.80;;;;;;5101170;27;20039;-80
2022/05/10 12:56:42;;;;;;;19.50;4.32;;;24.30;76.90;;;;;;5120961;27;20117;-82
2022/05/10 12:59:31;;;;;;;11.60;4.00;;;24.30;76.20;;;;;;5136443;27;20039;-81
2022/05/10 13:01:58;;;;;;;10.38;3.65;;;24.10;77.20;;;;;;5115682;27;20036;-80
2022/05/10 13:04:29;;;;;;;28.52;4.63;;;24.00;77.30;;;;;;5104315;27;20403;-80
2022/05/10 13:07:05;;;;;;;21.13;3.70;;;23.90;77.30;;;;;;5114545;27;20039;-80
2022/05/10 13:09:37;;;;;;;13.70;3.72;;;23.80;76.60;;;;;;5114651;27;20051;-80
2022/05/10 13:12:20;;;;;;;22.63;4.80;;;23.70;77.60;;;;;;5116049;27;20035;-80
2022/05/10 13:14:50;;;;;;;10.50;3.72;;;23.60;78.30;;;;;;5096649;27;20566;-80
2022/05/10 13:17:23;;;;;;;11.27;4.28;;;23.60;78.10;;;;;;5095383;27;20060;-81
2022/05/10 13:19:50;;;;;;;11.05;3.90;;;23.50;78.20;;;;;;5113741;27;20471;-80
2022/05/10 13:22:20;;;;;;;9.60;3.90;;;23.50;78.20;;;;;;5116285;27;20120;-80
2022/05/10 13:24:48;;;;;;;11.93;4.25;;;23.50;78.20;;;;;;5113058;27;20367;-80
2022/05/10 13:27:31;;;;;;;9.50;3.50;;;23.60;78.80;;;;;;5096201;27;20039;-81
2022/05/10 13:30:04;;;;;;;26.70;5.20;;;23.60;78.00;;;;;;5112598;27;20100;-82
2022/05/10 13:32:34;;;;;;;10.63;3.10;;;23.70;79.00;;;;;;5115022;27;20076;-80